createdAt,value
2018-08-12T00:03:06.695Z,99923.31
2018-08-12T00:09:11.894Z,99914.40
2018-08-12T00:15:20.049Z,99912.36
2018-08-12T00:21:24.740Z,99904.84
2018-08-12T00:27:30.197Z,99898.91
2018-08-12T00:33:35.565Z,99898.35
2018-08-12T00:39:40.354Z,99896.63
2018-08-12T00:45:45.367Z,99893.33
2018-08-12T00:51:50.240Z,99891.98
2018-08-12T00:57:54.984Z,99890.08
2018-08-12T01:04:01.796Z,99893.36
2018-08-12T01:10:08.530Z,99896.11
2018-08-12T01:16:13.516Z,99891.56
2018-08-12T01:22:18.350Z,99890.53
2018-08-12T01:28:23.465Z,99882.02
2018-08-12T01:34:28.233Z,99878.78
2018-08-12T01:40:33.617Z,99881.70
2018-08-12T01:46:38.484Z,99879.88
2018-08-12T01:52:43.869Z,99883.61
2018-08-12T01:58:49.492Z,99886.47
2018-08-12T02:04:54.219Z,99880.61
2018-08-12T02:10:59.607Z,99880.30
2018-08-12T02:17:05.472Z,99873.43
2018-08-12T02:23:11.031Z,99865.75
2018-08-12T02:29:15.886Z,99862.39
2018-08-12T02:35:21.006Z,99862.00
2018-08-12T02:41:26.209Z,99854.83
2018-08-12T02:47:34.077Z,99854.89
2018-08-12T02:53:39.528Z,99852.28
2018-08-12T02:59:44.608Z,99852.00
2018-08-12T03:05:49.578Z,99849.95
2018-08-12T03:11:54.721Z,99842.72
2018-08-12T03:17:59.770Z,99840.38
2018-08-12T03:24:06.152Z,99833.61
2018-08-12T03:30:11.731Z,99825.94
2018-08-12T03:36:17.002Z,99822.49
2018-08-12T03:42:22.439Z,99816.50
2018-08-12T03:48:27.328Z,99818.05
2018-08-12T03:54:33.268Z,99809.75
2018-08-12T04:00:38.776Z,99807.67
2018-08-12T04:06:43.754Z,99806.59
2018-08-12T04:12:48.862Z,99808.05
2018-08-12T04:18:54.237Z,99808.48
2018-08-12T04:24:59.312Z,99802.45
2018-08-12T04:31:05.296Z,99794.54
2018-08-12T04:37:10.293Z,99795.16
2018-08-12T04:43:15.560Z,99793.78
2018-08-12T04:49:20.931Z,99789.34
2018-08-12T04:55:25.950Z,99779.64
2018-08-12T05:01:32.828Z,99765.05
2018-08-12T05:07:38.247Z,99759.08
2018-08-12T05:13:43.880Z,99754.47
2018-08-12T05:19:49.572Z,99740.61
2018-08-12T05:25:54.917Z,99746.03
2018-08-12T05:32:00.503Z,99740.92
2018-08-12T05:38:06.086Z,99737.44
2018-08-12T05:44:11.751Z,99736.03
2018-08-12T05:50:17.417Z,99732.21
2018-08-12T05:56:22.642Z,99730.27
2018-08-12T06:02:27.786Z,99729.08
2018-08-12T06:08:33.680Z,99728.70
2018-08-12T06:14:38.937Z,99721.89
2018-08-12T06:20:43.992Z,99731.22
2018-08-12T06:26:48.823Z,99719.23
2018-08-12T06:32:54.017Z,99714.58
2018-08-12T06:38:59.165Z,99723.11
2018-08-12T06:45:07.862Z,99710.47
2018-08-12T06:51:12.644Z,99714.17
2018-08-12T06:57:18.105Z,99714.20
2018-08-12T07:03:23.548Z,99713.25
2018-08-12T07:09:29.410Z,99701.25
2018-08-12T07:15:35.538Z,99696.00
2018-08-12T07:21:40.408Z,99693.15
2018-08-12T07:27:45.306Z,99685.25
2018-08-12T07:33:50.372Z,99681.78
2018-08-12T07:39:55.139Z,99679.66
2018-08-12T07:46:00.597Z,99672.03
2018-08-12T07:52:05.511Z,99661.58
2018-08-12T07:58:10.208Z,99654.65
2018-08-12T08:04:15.165Z,99646.10
2018-08-12T08:10:20.203Z,99649.08
2018-08-12T08:16:25.101Z,99646.95
2018-08-12T08:22:31.229Z,99647.48
2018-08-12T08:28:37.037Z,99647.47
2018-08-12T08:34:42.411Z,99644.16
2018-08-12T08:40:47.085Z,99636.73
2018-08-12T08:46:52.041Z,99631.57
2018-08-12T08:52:56.857Z,99625.70
2018-08-12T08:59:04.954Z,99616.04
2018-08-12T09:05:12.340Z,99609.19
2018-08-12T09:11:17.430Z,99605.00
2018-08-12T09:17:22.961Z,99603.84
2018-08-12T09:23:28.150Z,99597.34
2018-08-12T09:29:34.863Z,99587.59
2018-08-12T09:35:39.907Z,99585.36
2018-08-12T09:41:44.617Z,99574.64
2018-08-12T09:47:49.449Z,99578.39
2018-08-12T09:53:54.331Z,99568.27
2018-08-12T09:59:59.758Z,99557.02
2018-08-12T10:06:05.557Z,99532.69
2018-08-12T10:12:10.906Z,99524.41
2018-08-12T10:18:16.027Z,99520.68
2018-08-12T10:24:21.414Z,99509.64
2018-08-12T10:30:26.167Z,99497.73
2018-08-12T10:36:32.446Z,99488.88
2018-08-12T10:42:37.634Z,99481.01
2018-08-12T10:48:42.401Z,99471.33
2018-08-12T10:54:47.358Z,99475.06
2018-08-12T11:00:52.579Z,99456.69
2018-08-12T11:06:58.119Z,99453.66
2018-08-12T11:13:04.279Z,99447.84
2018-08-12T11:19:09.094Z,99447.78
2018-08-12T11:25:14.007Z,99445.42
2018-08-12T11:31:18.943Z,99427.73
2018-08-12T11:37:23.692Z,99414.29
2018-08-12T11:43:29.102Z,99412.02
2018-08-12T11:49:34.389Z,99405.00
2018-08-12T11:55:39.303Z,99401.05
2018-08-12T12:01:44.058Z,99389.16
2018-08-12T12:07:49.261Z,99400.09
2018-08-12T12:13:54.280Z,99380.59
2018-08-12T12:19:59.120Z,99374.89
2018-08-12T12:26:05.356Z,99366.97
2018-08-12T12:32:10.080Z,99369.45
2018-08-12T12:38:15.071Z,99366.85
2018-08-12T12:44:20.129Z,99341.39
2018-08-12T12:50:25.341Z,99338.37
2018-08-12T12:56:30.869Z,99322.61
2018-08-12T13:02:36.476Z,99316.94
2018-08-12T13:08:41.494Z,99301.16
2018-08-12T13:14:46.260Z,99291.60
2018-08-12T13:20:51.018Z,99290.38
2018-08-12T13:26:55.872Z,99276.53
2018-08-12T13:33:01.990Z,99270.77
2018-08-12T13:39:11.484Z,99268.48
2018-08-12T13:45:17.049Z,99258.25
2018-08-12T13:51:22.140Z,99242.90
2018-08-12T13:57:26.983Z,99254.45
2018-08-12T14:03:34.394Z,99235.94
2018-08-12T14:09:39.355Z,99229.82
2018-08-12T14:15:44.127Z,99210.02
2018-08-12T14:21:48.890Z,99210.77
2018-08-12T14:27:53.749Z,99196.99
2018-08-12T14:33:58.569Z,99194.20
2018-08-12T14:40:04.090Z,99183.19
2018-08-12T14:46:08.898Z,99183.16
2018-08-12T14:52:13.833Z,99164.50
2018-08-12T14:58:18.746Z,99163.96
2018-08-12T15:04:23.547Z,99156.17
2018-08-12T15:10:29.231Z,99142.86
2018-08-12T15:16:35.412Z,99133.67
2018-08-12T15:22:40.905Z,99131.91
2018-08-12T15:28:45.719Z,99119.36
2018-08-12T15:34:50.758Z,99116.64
2018-08-12T15:40:55.526Z,99110.44
2018-08-12T15:47:01.117Z,99105.55
2018-08-12T15:53:06.273Z,99100.51
2018-08-12T15:59:11.016Z,99099.26
2018-08-12T16:05:15.948Z,99084.20
2018-08-12T16:11:20.934Z,99084.05
2018-08-12T16:17:26.012Z,99074.95
2018-08-12T16:23:31.212Z,99069.98
2018-08-12T16:29:36.116Z,99066.92
2018-08-12T16:35:40.843Z,99058.62
2018-08-12T16:41:45.664Z,99057.25
2018-08-12T16:47:50.356Z,99048.19
2018-08-12T16:53:55.469Z,99042.80
2018-08-12T17:00:01.137Z,99039.05
2018-08-12T17:06:06.013Z,99030.44
2018-08-12T17:12:10.738Z,99027.75
2018-08-12T17:18:15.657Z,99023.29
2018-08-12T17:24:20.479Z,99012.67
2018-08-12T17:30:25.237Z,99001.64
2018-08-12T17:36:30.473Z,99004.86
2018-08-12T17:42:35.442Z,99009.59
2018-08-12T17:48:40.152Z,98999.55
2018-08-12T17:54:44.926Z,99003.72
2018-08-12T18:00:49.771Z,99002.39
2018-08-12T18:06:54.540Z,99005.33
2018-08-12T18:12:59.378Z,99003.85
2018-08-12T18:19:04.376Z,99000.80
2018-08-12T18:25:11.064Z,98986.20
2018-08-12T18:31:15.803Z,98997.31
2018-08-12T18:37:20.928Z,98998.00
2018-08-12T18:43:26.074Z,98994.94
2018-08-12T18:49:31.434Z,99005.00
2018-08-12T18:55:36.600Z,99001.45
2018-08-12T19:01:41.471Z,98999.08
2018-08-12T19:07:46.819Z,99009.29
2018-08-12T19:13:51.610Z,99010.05
2018-08-12T19:19:56.635Z,99004.16
2018-08-12T19:26:04.407Z,99002.37
2018-08-12T19:32:09.200Z,99004.38
2018-08-12T19:38:14.760Z,99000.13
2018-08-12T19:44:19.514Z,98992.81
2018-08-12T19:50:24.416Z,98990.78
2018-08-12T19:56:30.514Z,98985.11
2018-08-12T20:02:35.391Z,98976.35
2018-08-12T20:08:40.218Z,98971.73
2018-08-12T20:14:45.077Z,98972.81
2018-08-12T20:20:49.881Z,98968.44
2018-08-12T20:26:54.885Z,98966.00
2018-08-12T20:32:59.667Z,98964.13
2018-08-12T20:39:08.737Z,98959.75
2018-08-12T20:45:13.686Z,98955.44
2018-08-12T20:51:18.723Z,98958.99
2018-08-12T20:57:23.479Z,98950.23
2018-08-12T21:03:28.295Z,98948.13
2018-08-12T21:09:33.125Z,98942.92
2018-08-12T21:15:38.017Z,98936.97
2018-08-12T21:21:42.884Z,98938.05
2018-08-12T21:27:47.581Z,98941.86
2018-08-12T21:33:52.276Z,98937.55
2018-08-12T21:39:56.974Z,98941.62
2018-08-12T21:46:02.399Z,98938.34
2018-08-12T21:52:07.228Z,98926.91
2018-08-12T21:58:11.976Z,98915.72
2018-08-12T22:04:16.776Z,98923.80
2018-08-12T22:10:21.766Z,98913.73
2018-08-12T22:16:26.791Z,98910.72
2018-08-12T22:22:32.370Z,98908.55
2018-08-12T22:28:37.262Z,98912.91
2018-08-12T22:34:42.994Z,98907.89
2018-08-12T22:40:48.006Z,98915.55
2018-08-12T22:46:52.799Z,98913.18
2018-08-12T22:52:57.491Z,98905.08
2018-08-12T22:59:03.214Z,98903.08
2018-08-12T23:05:08.422Z,98902.14
2018-08-12T23:11:13.364Z,98901.69
2018-08-12T23:17:18.379Z,98901.52
2018-08-12T23:23:23.713Z,98898.12
2018-08-12T23:29:29.371Z,98886.83
2018-08-12T23:35:34.273Z,98882.57
2018-08-12T23:41:39.101Z,98871.30
2018-08-12T23:47:43.941Z,98872.30
2018-08-12T23:53:49.032Z,98865.56
2018-08-12T23:59:53.711Z,98860.99
